Time;durP1;ratioP1;P1;durP2;ratioP2;P2;SDS_P1;SDS_P2;PMS_P1;PMS_P2;Temp;Humidity;BMP_temperature;BMP_pressure;BME280_temperature;BME280_humidity;BME280_pressure;Samples;Min_cycle;Max_cycle;Signal;HPM_P1;HPM_P2
2022/07/07 00:00:52;;;;;;;;;;;;;;;-140.72;100.00;52317.81;5024860;28;19953;-67
2022/07/07 00:03:17;;;;;;;;;;;;;;;-140.72;100.00;52309.69;5023242;28;19976;-67
2022/07/07 00:05:42;;;;;;;;;;;;;;;-140.72;100.00;52293.47;5018682;28;19928;-68
2022/07/07 00:08:08;;;;;;;;;;;;;;;-140.72;100.00;52313.75;5015741;28;19918;-67
2022/07/07 00:10:33;;;;;;;;;;;;;;;-140.72;100.00;52295.50;5036083;28;20416;-67
2022/07/07 00:12:58;;;;;;;;;;;;;;;-140.72;100.00;52295.50;5023637;28;19917;-67
2022/07/07 00:15:23;;;;;;;;;;;;;;;-140.72;100.00;52256.94;5007205;28;19921;-67
2022/07/07 00:17:48;;;;;;;;;;;;;;;-140.72;100.00;52267.09;5003904;28;19941;-68
2022/07/07 00:20:14;;;;;;;;;;;;;;;-140.72;100.00;52305.63;5020216;28;19922;-67
2022/07/07 00:22:39;;;;;;;;;;;;;;;-140.72;100.00;52293.47;5022336;28;20389;-67
2022/07/07 00:25:05;;;;;;;;;;;;;;;-140.72;100.00;52246.78;5023655;28;19921;-68
2022/07/07 00:27:30;;;;;;;;;;;;;;;-140.72;100.00;52309.69;5021942;28;20016;-68
2022/07/07 00:29:55;;;;;;;;;;;;;;;-140.72;100.00;52305.63;5011418;28;19960;-67
2022/07/07 00:32:21;;;;;;;;;;;;;;;-140.72;100.00;52293.47;5021226;28;20024;-68
2022/07/07 00:34:46;;;;;;;;;;;;;;;-140.72;100.00;52309.69;5003101;28;19917;-67
2022/07/07 00:37:11;;;;;;;;;;;;;;;-140.72;100.00;52313.75;5006278;28;20001;-68
2022/07/07 00:39:36;;;;;;;;;;;;;;;-140.72;100.00;52305.63;5021991;28;20270;-67
2022/07/07 00:42:01;;;;;;;;;;;;;;;-140.72;100.00;52281.28;5021461;28;19928;-68
2022/07/07 00:44:27;;;;;;;;;;;;;;;-140.72;100.00;52307.66;5018618;28;19918;-69
2022/07/07 00:46:55;;;;;;;;;;;;;;;-140.72;100.00;52263.03;5022585;28;19918;-68
2022/07/07 00:49:21;;;;;;;;;;;;;;;-140.72;100.00;52334.03;5013535;28;19921;-67
2022/07/07 00:51:47;;;;;;;;;;;;;;;-140.72;100.00;52317.81;5010050;28;19921;-68
2022/07/07 00:54:12;;;;;;;;;;;;;;;-140.72;100.00;52325.94;5010612;28;20396;-68
2022/07/07 00:56:38;;;;;;;;;;;;;;;-140.72;100.00;52323.91;5022871;28;19940;-67
2022/07/07 00:59:06;;;;;;;;;;;;;;;-140.72;100.00;52309.69;5023102;28;19917;-68
2022/07/07 01:01:32;;;;;;;;;;;;;;;-140.72;100.00;52338.09;5023038;28;19940;-68
2022/07/07 01:03:58;;;;;;;;;;;;;;;-140.72;100.00;52323.91;5016639;28;20032;-67
2022/07/07 01:06:24;;;;;;;;;;;;;;;-140.72;100.00;52299.56;5018909;28;19921;-68
2022/07/07 01:08:51;;;;;;;;;;;;;;;-140.72;100.00;52323.91;5022527;28;20011;-69
2022/07/07 01:11:16;;;;;;;;;;;;;;;-140.72;100.00;52269.13;5020829;28;19917;-67
2022/07/07 01:13:42;;;;;;;;;;;;;;;-140.72;100.00;52297.53;5021306;28;19972;-68
2022/07/07 01:16:08;;;;;;;;;;;;;;;-140.72;100.00;52305.63;5010607;28;19918;-68
2022/07/07 01:18:33;;;;;;;;;;;;;;;-140.72;100.00;52317.81;5014144;28;19925;-68
2022/07/07 01:21:00;;;;;;;;;;;;;;;-140.72;100.00;52305.63;5012434;28;20263;-68
2022/07/07 01:23:26;;;;;;;;;;;;;;;-140.72;100.00;52338.09;5019013;28;19953;-68
2022/07/07 01:25:51;;;;;;;;;;;;;;;-140.72;100.00;52321.88;5016637;28;19941;-66
2022/07/07 01:28:16;;;;;;;;;;;;;;;-140.72;100.00;52350.28;5021074;28;19917;-67
2022/07/07 01:30:41;;;;;;;;;;;;;;;-140.72;100.00;52325.94;5015943;28;19932;-67
2022/07/07 01:33:07;;;;;;;;;;;;;;;-140.72;100.00;52325.94;5015226;28;19997;-66
2022/07/07 01:35:32;;;;;;;;;;;;;;;-140.72;100.00;52321.88;5016605;28;19987;-67
2022/07/07 01:37:57;;;;;;;;;;;;;;;-140.72;100.00;52358.41;5008622;28;19918;-68
2022/07/07 01:40:22;;;;;;;;;;;;;;;-140.72;100.00;52346.22;5017287;28;20012;-68
2022/07/07 01:42:47;;;;;;;;;;;;;;;-140.72;100.00;52319.84;5017622;28;19993;-68
2022/07/07 01:45:13;;;;;;;;;;;;;;;-140.72;100.00;52364.47;5023165;28;20400;-68
2022/07/07 01:47:38;;;;;;;;;;;;;;;-140.72;100.00;52356.38;5022561;28;19918;-68
2022/07/07 01:50:04;;;;;;;;;;;;;;;-140.72;100.00;52376.66;5013817;28;19922;-68
2022/07/07 01:52:30;;;;;;;;;;;;;;;-140.72;100.00;52348.25;5011141;28;19918;-68
2022/07/07 01:54:55;;;;;;;;;;;;;;;-140.72;100.00;52317.81;5019679;28;20268;-68
2022/07/07 01:57:20;;;;;;;;;;;;;;;-140.72;100.00;52354.34;5017555;28;19917;-68
2022/07/07 01:59:45;;;;;;;;;;;;;;;-140.72;100.00;52344.19;5012613;28;19918;-67
2022/07/07 02:02:12;;;;;;;;;;;;;;;-140.72;100.00;52366.50;5014193;28;19924;-67
2022/07/07 02:04:37;;;;;;;;;;;;;;;-140.72;100.00;52350.28;5016348;28;19918;-67
2022/07/07 02:07:03;;;;;;;;;;;;;;;-140.72;100.00;52366.50;5012643;28;19961;-67
2022/07/07 02:09:28;;;;;;;;;;;;;;;-140.72;100.00;52374.63;5023011;28;20016;-67
2022/07/07 02:11:54;;;;;;;;;;;;;;;-140.72;100.00;52401.00;5021772;28;19961;-66
2022/07/07 02:14:19;;;;;;;;;;;;;;;-140.72;100.00;52356.38;5008771;28;19917;-67
2022/07/07 02:16:44;;;;;;;;;;;;;;;-140.72;100.00;52358.41;5022072;28;20008;-67
2022/07/07 02:19:09;;;;;;;;;;;;;;;-140.72;100.00;52376.66;5020480;28;20354;-67
2022/07/07 02:21:35;;;;;;;;;;;;;;;-140.72;100.00;52354.34;5020979;28;19918;-67
2022/07/07 02:24:00;;;;;;;;;;;;;;;-140.72;100.00;52362.44;5020546;28;19918;-68
2022/07/07 02:26:26;;;;;;;;;;;;;;;-140.72;100.00;52350.28;5009687;28;19917;-68
2022/07/07 02:28:52;;;;;;;;;;;;;;;-140.72;100.00;52374.63;5020360;28;19976;-67
2022/07/07 02:31:17;;;;;;;;;;;;;;;-140.72;100.00;52342.16;5013460;28;19917;-67
2022/07/07 02:33:59;;;;;;;;;;;;;;;-140.72;100.00;52372.59;5036623;23;20442;-85
2022/07/07 02:36:25;;;;;;;;;;;;;;;-140.72;100.00;52344.19;5005261;28;19960;-84
2022/07/07 02:38:51;;;;;;;;;;;;;;;-140.72;100.00;52354.34;5012543;28;19933;-83
2022/07/07 02:41:16;;;;;;;;;;;;;;;-140.72;100.00;52386.81;5017153;28;19972;-82
2022/07/07 02:43:43;;;;;;;;;;;;;;;-140.72;100.00;52362.44;5017607;28;19917;-83
2022/07/07 02:46:11;;;;;;;;;;;;;;;-140.72;100.00;52382.75;5015162;28;19924;-83
2022/07/07 02:48:51;;;;;;;;;;;;;;;-140.72;100.00;52366.50;5008132;28;19921;-84
2022/07/07 02:51:25;;;;;;;;;;;;;;;-140.72;100.00;52370.56;5012318;28;20021;-84
2022/07/07 02:54:08;;;;;;;;;;;;;;;-140.72;100.00;52394.91;5019818;28;20368;-83
2022/07/07 02:56:33;;;;;;;;;;;;;;;-140.72;100.00;52366.50;5011967;23;19926;-83
2022/07/07 02:58:58;;;;;;;;;;;;;;;-140.72;100.00;52346.22;5006862;28;19929;-83
2022/07/07 03:01:24;;;;;;;;;;;;;;;-140.72;100.00;52403.03;5004423;28;19980;-82
2022/07/07 03:03:49;;;;;;;;;;;;;;;-140.72;100.00;52380.72;5005899;28;19917;-84
2022/07/07 03:06:14;;;;;;;;;;;;;;;-140.72;100.00;52366.50;5007007;28;19993;-84
2022/07/07 03:08:40;;;;;;;;;;;;;;;-140.72;100.00;52354.34;5015469;28;19936;-84
2022/07/07 03:11:06;;;;;;;;;;;;;;;-140.72;100.00;52358.41;5010795;28;19973;-83
2022/07/07 03:13:31;;;;;;;;;;;;;;;-140.72;100.00;52348.25;5001322;28;19969;-84
2022/07/07 03:15:56;;;;;;;;;;;;;;;-140.72;100.00;52342.16;5011630;28;19933;-84
2022/07/07 03:18:22;;;;;;;;;;;;;;;-140.72;100.00;52350.28;5014978;28;19918;-84
2022/07/07 03:20:47;;;;;;;;;;;;;;;-140.72;100.00;52342.16;5016595;28;19922;-84
2022/07/07 03:23:12;;;;;;;;;;;;;;;-140.72;100.00;52394.91;5002468;28;19989;-84
2022/07/07 03:25:38;;;;;;;;;;;;;;;-140.72;100.00;52380.72;4995912;28;19918;-82
2022/07/07 03:28:03;;;;;;;;;;;;;;;-140.72;100.00;52368.53;4996103;28;20526;-85
2022/07/07 03:30:28;;;;;;;;;;;;;;;-140.72;100.00;52364.47;4997589;28;19962;-84
2022/07/07 03:32:54;;;;;;;;;;;;;;;-140.72;100.00;52388.84;4993448;28;19918;-85
2022/07/07 03:35:19;;;;;;;;;;;;;;;-140.72;100.00;52376.66;4994682;28;19918;-84
2022/07/07 03:37:54;;;;;;;;;;;;;;;-140.72;100.00;52401.00;4983376;28;20294;-84
2022/07/07 03:40:28;;;;;;;;;;;;;;;-140.72;100.00;52350.28;4994171;28;19918;-85
2022/07/07 03:42:56;;;;;;;;;;;;;;;-140.72;100.00;52364.47;4991125;28;19922;-84
2022/07/07 03:45:31;;;;;;;;;;;;;;;-140.72;100.00;52368.53;4994070;28;19918;-83
2022/07/07 03:47:56;;;;;;;;;;;;;;;-140.72;100.00;52360.44;4992701;28;20067;-84
2022/07/07 03:50:25;;;;;;;;;;;;;;;-140.72;100.00;52354.34;4987577;28;19996;-84
2022/07/07 03:52:56;;;;;;;;;;;;;;;-140.72;100.00;52405.06;4981822;28;20004;-84
2022/07/07 03:55:30;;;;;;;;;;;;;;;-140.72;100.00;52386.81;5002727;28;19918;-83
2022/07/07 03:58:01;;;;;;;;;;;;;;;-140.72;100.00;52368.53;4993817;28;19921;-85
2022/07/07 04:00:32;;;;;;;;;;;;;;;-140.72;100.00;52374.63;4993915;28;19988;-84
2022/07/07 04:03:03;;;;;;;;;;;;;;;-140.72;100.00;52370.56;4994320;28;19996;-83
2022/07/07 04:05:35;;;;;;;;;;;;;;;-140.72;100.00;52352.31;4994487;28;19918;-83
2022/07/07 04:08:09;;;;;;;;;;;;;;;-140.72;100.00;52384.78;4988562;28;19937;-83
2022/07/07 04:10:41;;;;;;;;;;;;;;;-140.72;100.00;52407.09;4979821;28;20409;-84
2022/07/07 04:13:06;;;;;;;;;;;;;;;-140.72;100.00;52384.78;4982512;28;19921;-84
2022/07/07 04:15:34;;;;;;;;;;;;;;;-140.72;100.00;52396.94;4993288;28;19972;-83
2022/07/07 04:18:02;;;;;;;;;;;;;;;-140.72;100.00;52390.84;5053528;23;19925;-84
2022/07/07 04:20:40;;;;;;;;;;;;;;;-140.72;100.00;52368.53;5001344;28;19949;-84
2022/07/07 04:23:21;;;;;;;;;;;;;;;-140.72;100.00;52370.56;5006873;28;19925;-95
2022/07/07 04:25:58;;;;;;;;;;;;;;;-140.72;100.00;52362.44;5004973;28;19999;-92
2022/07/07 04:28:32;;;;;;;;;;;;;;;-140.72;100.00;52358.41;5009010;28;20368;-93
2022/07/07 04:30:57;;;;;;;;;;;;;;;-140.72;100.00;52336.06;5012673;28;19928;-84
2022/07/07 04:36:42;;;;;;;;;;;;;;;-140.72;100.00;52390.84;5005421;28;19922;-94
2022/07/07 04:39:25;;;;;;;;;;;;;;;-140.72;100.00;52386.81;5005279;28;20000;-91
2022/07/07 04:41:54;;;;;;;;;;;;;;;-140.72;100.00;52380.72;5022614;28;19925;-88
2022/07/07 04:44:37;;;;;;;;;;;;;;;-140.72;100.00;52354.34;5002430;28;19917;-88
2022/07/07 04:47:02;;;;;;;;;;;;;;;-140.72;100.00;52382.75;5003312;28;19917;-92
2022/07/07 04:49:31;;;;;;;;;;;;;;;-140.72;100.00;52409.13;5008780;28;19956;-93
2022/07/07 04:52:06;;;;;;;;;;;;;;;-140.72;100.00;52407.09;5005286;28;20337;-94
2022/07/07 04:54:34;;;;;;;;;;;;;;;-140.72;100.00;52368.53;5023794;28;19925;-86
2022/07/07 04:57:14;;;;;;;;;;;;;;;-140.72;100.00;52382.75;5011079;28;19929;-89
2022/07/07 04:59:43;;;;;;;;;;;;;;;-140.72;100.00;52390.84;5013745;28;19921;-96
2022/07/07 05:02:11;;;;;;;;;;;;;;;-140.72;100.00;52350.28;5012927;28;19966;-90
2022/07/07 05:07:43;;;;;;;;;;;;;;;-140.72;100.00;52451.72;5006908;28;19951;-94
2022/07/07 05:26:27;;;;;;;;;;;;;;;-140.72;100.00;52382.75;5921074;23;19926;-69
2022/07/07 05:28:53;;;;;;;;;;;;;;;-140.72;100.00;52398.97;5017111;28;19929;-69
2022/07/07 05:31:18;;;;;;;;;;;;;;;-140.72;100.00;52401.00;5003785;28;19917;-69
2022/07/07 05:33:43;;;;;;;;;;;;;;;-140.72;100.00;52403.03;5006240;28;19983;-69
2022/07/07 05:36:09;;;;;;;;;;;;;;;-140.72;100.00;52386.81;5012074;28;20016;-70
2022/07/07 05:38:34;;;;;;;;;;;;;;;-140.72;100.00;52407.09;5016767;28;20042;-70
2022/07/07 05:40:59;;;;;;;;;;;;;;;-140.72;100.00;52415.22;5003817;28;19917;-69
2022/07/07 05:43:25;;;;;;;;;;;;;;;-140.72;100.00;52451.72;5016798;28;19971;-70
2022/07/07 05:45:50;;;;;;;;;;;;;;;-140.72;100.00;52421.28;5017626;28;20062;-70
2022/07/07 05:48:16;;;;;;;;;;;;;;;-140.72;100.00;52403.03;5015741;28;19924;-70
2022/07/07 05:50:41;;;;;;;;;;;;;;;-140.72;100.00;52390.84;5016998;28;19918;-70
2022/07/07 05:53:06;;;;;;;;;;;;;;;-140.72;100.00;52390.84;5018636;28;20301;-70
2022/07/07 05:55:31;;;;;;;;;;;;;;;-140.72;100.00;52425.34;5002958;28;19921;-70
2022/07/07 05:57:57;;;;;;;;;;;;;;;-140.72;100.00;52378.69;5016564;28;19953;-71
2022/07/07 06:00:23;;;;;;;;;;;;;;;-140.72;100.00;52394.91;5015291;28;19922;-73
2022/07/07 06:02:48;;;;;;;;;;;;;;;-140.72;100.00;52405.06;5011820;28;20271;-69
2022/07/07 06:05:13;;;;;;;;;;;;;;;-140.72;100.00;52405.06;5009829;28;19944;-70
2022/07/07 06:07:38;;;;;;;;;;;;;;;-140.72;100.00;52396.94;5009725;28;19917;-70
2022/07/07 06:10:04;;;;;;;;;;;;;;;-140.72;100.00;52396.94;5008090;28;20401;-70
2022/07/07 06:12:29;;;;;;;;;;;;;;;-140.72;100.00;52423.31;5002305;28;20059;-72
2022/07/07 06:14:54;;;;;;;;;;;;;;;-140.72;100.00;52384.78;5003502;28;19963;-73
2022/07/07 06:17:19;;;;;;;;;;;;;;;-140.72;100.00;52390.84;5003446;28;20298;-74
2022/07/07 06:19:45;;;;;;;;;;;;;;;-140.72;100.00;52401.00;5003920;28;19924;-73
2022/07/07 06:22:10;;;;;;;;;;;;;;;-140.72;100.00;52405.06;5012271;28;19917;-71
2022/07/07 06:24:35;;;;;;;;;;;;;;;-140.72;100.00;52398.97;5018002;28;19917;-72
2022/07/07 06:27:00;;;;;;;;;;;;;;;-140.72;100.00;52437.53;5019700;28;20017;-71
2022/07/07 06:29:26;;;;;;;;;;;;;;;-140.72;100.00;52407.09;5010683;28;19918;-72
2022/07/07 06:31:51;;;;;;;;;;;;;;;-140.72;100.00;52403.03;5000293;28;19941;-71
2022/07/07 06:34:16;;;;;;;;;;;;;;;-140.72;100.00;52407.09;5012870;28;19982;-72
2022/07/07 06:36:41;;;;;;;;;;;;;;;-140.72;100.00;52380.72;5020074;28;19971;-73
2022/07/07 06:39:07;;;;;;;;;;;;;;;-140.72;100.00;52368.53;5026041;28;19918;-72
2022/07/07 06:41:33;;;;;;;;;;;;;;;-140.72;100.00;52380.72;5025583;28;20271;-72
2022/07/07 06:43:58;;;;;;;;;;;;;;;-140.72;100.00;52403.03;5024190;28;20024;-72
2022/07/07 06:46:23;;;;;;;;;;;;;;;-140.72;100.00;52401.00;5013332;28;19958;-72
2022/07/07 06:48:49;;;;;;;;;;;;;;;-140.72;100.00;52415.22;5014942;28;19972;-72
2022/07/07 06:51:14;;;;;;;;;;;;;;;-140.72;100.00;52401.00;5009853;28;19918;-72
2022/07/07 06:53:39;;;;;;;;;;;;;;;-140.72;100.00;52346.22;4999729;28;19924;-71
2022/07/07 06:56:04;;;;;;;;;;;;;;;-140.72;100.00;52374.63;5007871;28;20333;-72
2022/07/07 06:58:30;;;;;;;;;;;;;;;-140.72;100.00;52352.31;5018309;28;21427;-73
2022/07/07 07:00:55;;;;;;;;;;;;;;;-140.72;100.00;52325.94;5018579;28;20297;-74
2022/07/07 07:03:20;;;;;;;;;;;;;;;-140.72;100.00;52380.72;5015592;28;19921;-74
2022/07/07 07:05:45;;;;;;;;;;;;;;;-140.72;100.00;52358.41;5015388;28;19944;-72
2022/07/07 07:08:11;;;;;;;;;;;;;;;-140.72;100.00;52330.00;5013556;28;19922;-77
2022/07/07 07:10:36;;;;;;;;;;;;;;;-140.72;100.00;52372.59;5014956;28;20356;-74
2022/07/07 07:13:01;;;;;;;;;;;;;;;-140.72;100.00;52411.16;5008464;28;19928;-74
2022/07/07 07:15:27;;;;;;;;;;;;;;;-140.72;100.00;52366.50;5003473;28;19972;-74
2022/07/07 07:17:52;;;;;;;;;;;;;;;-140.72;100.00;52415.22;5012335;28;19944;-74
2022/07/07 07:20:17;;;;;;;;;;;;;;;-140.72;100.00;52378.69;5017041;28;20382;-74
2022/07/07 07:22:42;;;;;;;;;;;;;;;-140.72;100.00;52384.78;4997102;28;19918;-73
2022/07/07 07:25:08;;;;;;;;;;;;;;;-140.72;100.00;52390.84;5010547;28;19924;-73
2022/07/07 07:27:34;;;;;;;;;;;;;;;-140.72;100.00;52370.56;5015220;28;19929;-74
2022/07/07 07:29:59;;;;;;;;;;;;;;;-140.72;100.00;52374.63;5015856;28;20452;-73
2022/07/07 07:32:24;;;;;;;;;;;;;;;-140.72;100.00;52334.03;5023574;28;19917;-73
2022/07/07 07:34:50;;;;;;;;;;;;;;;-140.72;100.00;52336.06;5012728;28;19917;-75
2022/07/07 07:37:15;;;;;;;;;;;;;;;-140.72;100.00;52374.63;5003146;28;19917;-73
2022/07/07 07:39:40;;;;;;;;;;;;;;;-140.72;100.00;52342.16;5009416;28;20008;-73
2022/07/07 07:42:06;;;;;;;;;;;;;;;-140.72;100.00;52321.88;5014417;28;20007;-73
2022/07/07 07:47:15;;;;;;;;;;;;;;;-140.72;100.00;52358.41;5001249;28;20253;-73
2022/07/07 07:49:40;;;;;;;;;;;;;;;-140.72;100.00;52311.72;4997244;28;19918;-73
2022/07/07 07:52:05;;;;;;;;;;;;;;;-140.72;100.00;52321.88;5012635;28;19917;-75
2022/07/07 07:54:31;;;;;;;;;;;;;;;-140.72;100.00;52315.78;4996316;28;20008;-73
2022/07/07 07:56:56;;;;;;;;;;;;;;;-140.72;100.00;52305.63;5008951;28;19961;-73
2022/07/07 07:59:22;;;;;;;;;;;;;;;-140.72;100.00;52301.59;4998064;28;20025;-74
2022/07/07 08:01:47;;;;;;;;;;;;;;;-140.72;100.00;52281.28;5006126;28;19917;-73
2022/07/07 08:04:12;;;;;;;;;;;;;;;-140.72;100.00;52336.06;5007896;28;19977;-73
2022/07/07 08:06:37;;;;;;;;;;;;;;;-140.72;100.00;52325.94;5006640;28;19918;-72
2022/07/07 08:09:03;;;;;;;;;;;;;;;-140.72;100.00;52311.72;5000638;28;20282;-73
2022/07/07 08:11:28;;;;;;;;;;;;;;;-140.72;100.00;52338.09;5004679;28;19924;-74
2022/07/07 08:13:53;;;;;;;;;;;;;;;-140.72;100.00;52350.28;4997624;28;20429;-74
2022/07/07 08:16:18;;;;;;;;;;;;;;;-140.72;100.00;52358.41;4996986;28;19918;-74
2022/07/07 08:18:44;;;;;;;;;;;;;;;-140.72;100.00;52362.44;4998692;28;19932;-74
2022/07/07 08:21:09;;;;;;;;;;;;;;;-140.72;100.00;52346.22;5007795;28;19918;-74
2022/07/07 08:23:34;;;;;;;;;;;;;;;-140.72;100.00;52390.84;5003030;28;19924;-74
2022/07/07 08:26:00;;;;;;;;;;;;;;;-140.72;100.00;52354.34;5019510;28;20358;-74
2022/07/07 08:28:26;;;;;;;;;;;;;;;-140.72;100.00;52327.97;5002855;28;20382;-74
2022/07/07 08:30:51;;;;;;;;;;;;;;;-140.72;100.00;52334.03;5008300;28;19918;-74
2022/07/07 08:33:16;;;;;;;;;;;;;;;-140.72;100.00;52327.97;4994855;28;19965;-74
2022/07/07 08:35:41;;;;;;;;;;;;;;;-140.72;100.00;52346.22;5008731;28;19922;-73
2022/07/07 08:38:06;;;;;;;;;;;;;;;-140.72;100.00;52313.75;5006234;28;19924;-74
2022/07/07 08:40:32;;;;;;;;;;;;;;;-140.72;100.00;52311.72;5000852;28;20271;-74
2022/07/07 08:42:58;;;;;;;;;;;;;;;-140.72;100.00;52273.19;5007530;28;19925;-73
2022/07/07 08:45:23;;;;;;;;;;;;;;;-140.72;100.00;52297.53;5009606;28;19919;-74
2022/07/07 08:47:48;;;;;;;;;;;;;;;-140.72;100.00;52319.84;5013640;28;20384;-74
2022/07/07 08:50:13;;;;;;;;;;;;;;;-140.72;100.00;52321.88;5003922;28;19918;-73
2022/07/07 08:52:39;;;;;;;;;;;;;;;-140.72;100.00;52334.03;5012417;28;19917;-73
2022/07/07 08:55:06;;;;;;;;;;;;;;;-140.72;100.00;52325.94;5023130;28;20011;-74
2022/07/07 08:57:31;;;;;;;;;;;;;;;-140.72;100.00;52321.88;5013732;28;19917;-74
2022/07/07 08:59:56;;;;;;;;;;;;;;;-140.72;100.00;52325.94;5012896;28;19918;-73
2022/07/07 09:02:23;;;;;;;;;;;;;;;-140.72;100.00;52311.72;4998560;28;19985;-73
2022/07/07 09:04:48;;;;;;;;;;;;;;;-140.72;100.00;52342.16;5005907;28;20354;-74
2022/07/07 09:07:13;;;;;;;;;;;;;;;-140.72;100.00;52299.56;5010168;28;19917;-73
2022/07/07 09:09:40;;;;;;;;;;;;;;;-140.72;100.00;52338.09;5009566;28;19917;-73
2022/07/07 09:12:06;;;;;;;;;;;;;;;-140.72;100.00;52325.94;5009204;28;19917;-73
2022/07/07 09:14:42;;;;;;;;;;;;;;;-140.72;100.00;52277.22;5002866;28;19917;-73
2022/07/07 09:17:15;;;;;;;;;;;;;;;-140.72;100.00;52299.56;5002762;28;19918;-73
2022/07/07 09:19:40;;;;;;;;;;;;;;;-140.72;100.00;52297.53;4997685;28;19918;-74
2022/07/07 09:22:06;;;;;;;;;;;;;;;-140.72;100.00;52327.97;5008794;28;20378;-73
2022/07/07 09:24:31;;;;;;;;;;;;;;;-140.72;100.00;52327.97;5000994;28;19928;-73
2022/07/07 09:26:56;;;;;;;;;;;;;;;-140.72;100.00;52321.88;5000079;28;19925;-73
2022/07/07 09:29:22;;;;;;;;;;;;;;;-140.72;100.00;52289.41;5001325;28;20342;-75
2022/07/07 09:31:52;;;;;;;;;;;;;;;-140.72;100.00;52281.28;5006005;28;19917;-73
2022/07/07 09:34:17;;;;;;;;;;;;;;;-140.72;100.00;52323.91;4994489;28;20382;-74
2022/07/07 09:39:37;;;;;;;;;;;;;;;-140.72;100.00;52336.06;5005433;28;20318;-73
2022/07/07 09:42:16;;;;;;;;;;;;;;;-140.72;100.00;52340.13;5007808;28;19981;-73
2022/07/07 09:44:41;;;;;;;;;;;;;;;-140.72;100.00;52336.06;5006261;28;20340;-74
2022/07/07 09:47:09;;;;;;;;;;;;;;;-140.72;100.00;52321.88;5013533;28;19977;-74
2022/07/07 09:49:40;;;;;;;;;;;;;;;-140.72;100.00;52350.28;5011198;28;19917;-74
2022/07/07 09:52:14;;;;;;;;;;;;;;;-140.72;100.00;52305.63;5011473;28;19925;-73
2022/07/07 09:54:45;;;;;;;;;;;;;;;-140.72;100.00;52321.88;5012260;28;19925;-74
2022/07/07 09:57:11;;;;;;;;;;;;;;;-140.72;100.00;52372.59;5001898;28;19918;-73
2022/07/07 09:59:36;;;;;;;;;;;;;;;-140.72;100.00;52358.41;5001341;28;19923;-73
2022/07/07 10:02:01;;;;;;;;;;;;;;;-140.72;100.00;52350.28;5007633;28;19961;-73
2022/07/07 10:04:27;;;;;;;;;;;;;;;-140.72;100.00;52354.34;5009753;28;20404;-75
2022/07/07 10:06:54;;;;;;;;;;;;;;;-140.72;100.00;52358.41;5005417;28;19972;-73
2022/07/07 10:09:20;;;;;;;;;;;;;;;-140.72;100.00;52301.59;5007099;28;20016;-73
2022/07/07 10:11:48;;;;;;;;;;;;;;;-140.72;100.00;52279.25;5007336;28;20392;-73
2022/07/07 10:14:13;;;;;;;;;;;;;;;-140.72;100.00;52315.78;5005159;28;20389;-74
2022/07/07 10:16:39;;;;;;;;;;;;;;;-140.72;100.00;52321.88;5004018;28;19918;-74
2022/07/07 10:19:05;;;;;;;;;;;;;;;-140.72;100.00;52269.13;4996568;28;19918;-74
2022/07/07 10:21:30;;;;;;;;;;;;;;;-140.72;100.00;52293.47;5003810;28;19963;-74
2022/07/07 10:23:56;;;;;;;;;;;;;;;-140.72;100.00;52305.63;4996184;28;19924;-74
2022/07/07 10:26:34;;;;;;;;;;;;;;;-140.72;100.00;52297.53;4994226;28;19925;-74
2022/07/07 10:29:00;;;;;;;;;;;;;;;-140.72;100.00;52261.00;5003095;28;19918;-74
2022/07/07 10:31:26;;;;;;;;;;;;;;;-140.72;100.00;52236.66;5012274;28;19918;-74
2022/07/07 10:34:03;;;;;;;;;;;;;;;-140.72;100.00;52232.59;5015276;28;19956;-74
2022/07/07 10:36:47;;;;;;;;;;;;;;;-140.72;100.00;52220.41;4997857;28;19918;-74
2022/07/07 10:39:13;;;;;;;;;;;;;;;-140.72;100.00;52240.72;5030834;28;19929;-75
2022/07/07 10:41:52;;;;;;;;;;;;;;;-140.72;100.00;52307.66;5020511;28;19917;-74
2022/07/07 10:44:19;;;;;;;;;;;;;;;-140.72;100.00;52338.09;5010205;28;20270;-72
2022/07/07 10:46:56;;;;;;;;;;;;;;;-140.72;100.00;52354.34;5001223;28;19996;-73
2022/07/07 10:49:36;;;;;;;;;;;;;;;-140.72;100.00;52301.59;5009230;28;19921;-73
2022/07/07 10:52:04;;;;;;;;;;;;;;;-140.72;100.00;52301.59;5005731;28;20394;-75
2022/07/07 10:54:35;;;;;;;;;;;;;;;-140.72;100.00;52232.59;5006329;28;19968;-73
2022/07/07 10:57:00;;;;;;;;;;;;;;;-140.72;100.00;52187.97;5012379;28;19964;-73
2022/07/07 10:59:26;;;;;;;;;;;;;;;-140.72;100.00;52159.56;5000866;28;19918;-73
2022/07/07 11:02:01;;;;;;;;;;;;;;;-140.72;100.00;52139.25;5002217;28;20259;-73
2022/07/07 11:04:41;;;;;;;;;;;;;;;-140.72;100.00;52236.66;5007072;28;20336;-73
2022/07/07 11:07:10;;;;;;;;;;;;;;;-140.72;100.00;52269.13;5006393;28;19924;-73
2022/07/07 11:09:53;;;;;;;;;;;;;;;-140.72;100.00;52317.81;5015087;28;19918;-73
2022/07/07 11:12:37;;;;;;;;;;;;;;;-140.72;100.00;52330.00;5017598;28;20004;-73
2022/07/07 11:15:14;;;;;;;;;;;;;;;-140.72;100.00;52313.75;5011979;28;19933;-73
2022/07/07 11:17:42;;;;;;;;;;;;;;;-140.72;100.00;52248.81;5015221;28;19918;-74
2022/07/07 11:20:08;;;;;;;;;;;;;;;-140.72;100.00;52183.91;5005946;28;20448;-73
2022/07/07 11:22:56;;;;;;;;;;;;;;;-140.72;100.00;52147.38;5012778;28;20385;-73
2022/07/07 11:25:22;;;;;;;;;;;;;;;-140.72;100.00;52187.97;5010964;28;20040;-74
2022/07/07 11:27:51;;;;;;;;;;;;;;;-140.72;100.00;52281.28;5002004;28;20401;-73
2022/07/07 11:30:20;;;;;;;;;;;;;;;-140.72;100.00;52350.28;5003057;28;20029;-74
2022/07/07 11:32:45;;;;;;;;;;;;;;;-140.72;100.00;52338.09;5003414;28;19918;-74
2022/07/07 11:35:11;;;;;;;;;;;;;;;-140.72;100.00;52350.28;5010726;28;19924;-73
2022/07/07 11:37:38;;;;;;;;;;;;;;;-140.72;100.00;52325.94;5007218;28;19940;-74
2022/07/07 11:40:04;;;;;;;;;;;;;;;-140.72;100.00;52295.50;5009357;28;19917;-73
2022/07/07 11:48:44;;;;;;;;;;;;;;;-140.72;100.00;52277.22;5005219;28;20294;-74
2022/07/07 11:51:09;;;;;;;;;;;;;;;-140.72;100.00;52263.03;5014713;28;19928;-74
2022/07/07 11:53:35;;;;;;;;;;;;;;;-140.72;100.00;52236.66;5008893;28;19917;-74
2022/07/07 11:56:00;;;;;;;;;;;;;;;-140.72;100.00;52238.69;5005780;28;19967;-73
2022/07/07 11:58:26;;;;;;;;;;;;;;;-140.72;100.00;52301.59;5009461;28;19917;-74
2022/07/07 12:00:52;;;;;;;;;;;;;;;-140.72;100.00;52279.25;5002663;28;20297;-74
2022/07/07 12:03:17;;;;;;;;;;;;;;;-140.72;100.00;52271.16;5009636;28;19924;-74
2022/07/07 12:05:46;;;;;;;;;;;;;;;-140.72;100.00;52297.53;5002725;28;19917;-74
2022/07/07 12:08:12;;;;;;;;;;;;;;;-140.72;100.00;52299.56;5004090;28;20434;-74
2022/07/07 12:10:39;;;;;;;;;;;;;;;-140.72;100.00;52325.94;4998082;28;19922;-74
2022/07/07 12:13:05;;;;;;;;;;;;;;;-140.72;100.00;52273.19;5008905;28;19968;-74
2022/07/07 12:15:34;;;;;;;;;;;;;;;-140.72;100.00;52236.66;5014565;28;19923;-74
2022/07/07 12:17:59;;;;;;;;;;;;;;;-140.72;100.00;52261.00;5004917;28;19940;-74
2022/07/07 12:20:24;;;;;;;;;;;;;;;-140.72;100.00;52263.03;5008047;28;19918;-74
2022/07/07 12:22:51;;;;;;;;;;;;;;;-140.72;100.00;52295.50;4995866;28;19924;-74
2022/07/07 12:25:16;;;;;;;;;;;;;;;-140.72;100.00;52265.06;5008858;28;19980;-74
2022/07/07 12:28:00;;;;;;;;;;;;;;;-140.72;100.00;52258.97;4999211;28;19930;-74
2022/07/07 12:30:28;;;;;;;;;;;;;;;-140.72;100.00;52216.34;4996788;28;20290;-74
2022/07/07 12:32:54;;;;;;;;;;;;;;;-140.72;100.00;52275.19;5006212;28;19925;-74
2022/07/07 12:35:30;;;;;;;;;;;;;;;-140.72;100.00;52222.44;4997207;28;20339;-73
2022/07/07 12:37:55;;;;;;;;;;;;;;;-140.72;100.00;52214.34;5008939;28;20012;-74
2022/07/07 12:40:22;;;;;;;;;;;;;;;-140.72;100.00;52106.78;4995462;28;19961;-73
2022/07/07 12:42:47;;;;;;;;;;;;;;;-140.72;100.00;52037.81;5010634;28;19928;-73
2022/07/07 12:45:13;;;;;;;;;;;;;;;-140.72;100.00;52127.09;5014692;28;19917;-73
2022/07/07 12:47:49;;;;;;;;;;;;;;;-140.72;100.00;52183.91;5009598;28;20023;-73
2022/07/07 12:50:14;;;;;;;;;;;;;;;-140.72;100.00;52224.47;5001430;28;20374;-74
2022/07/07 12:52:39;;;;;;;;;;;;;;;-140.72;100.00;52208.25;5010968;28;19925;-76